Time;durP1;ratioP1;P1;durP2;ratioP2;P2;SDS_P1;SDS_P2;PMS_P1;PMS_P2;Temp;Humidity;BMP_temperature;BMP_pressure;BME280_temperature;BME280_humidity;BME280_pressure;Samples;Min_cycle;Max_cycle;Signal;HPM_P1;HPM_P2
2021/05/29 00:02:19;;;;;;;1999.90;999.90;;;11.30;1.00;;;;;;5140909;22;20306;-81
2021/05/29 00:04:53;;;;;;;1999.90;999.90;;;11.20;99.90;;;;;;5075869;28;20393;-81
2021/05/29 00:07:36;;;;;;;1999.90;999.90;;;11.10;99.90;;;;;;5077043;28;20682;-81
2021/05/29 00:10:20;;;;;;;1999.90;999.90;;;11.00;1.00;;;;;;5057101;28;20621;-81
2021/05/29 00:13:00;;;;;;;1999.90;999.90;;;10.90;36.30;;;;;;5056947;28;20203;-81
2021/05/29 00:15:38;;;;;;;1999.90;999.90;;;10.90;41.90;;;;;;5056960;28;20203;-81
2021/05/29 00:19:08;;;;;;;1999.90;999.90;;;10.90;19.40;;;;;;5053530;28;20620;-81
2021/05/29 00:21:46;;;;;;;1999.90;999.90;;;10.80;37.80;;;;;;5035969;28;20282;-81
2021/05/29 00:24:26;;;;;;;1999.90;999.90;;;10.80;1.00;;;;;;5055360;28;20180;-81
2021/05/29 00:27:13;;;;;;;1999.90;999.90;;;11.10;1.00;;;;;;5054560;28;20207;-81
2021/05/29 00:29:42;;;;;;;1999.90;999.90;;;11.20;1.00;;;;;;5055095;28;20264;-81
2021/05/29 00:32:42;;;;;;;1999.90;999.90;;;11.10;1.00;;;;;;5055195;28;20713;-81
2021/05/29 00:35:11;;;;;;;1999.90;999.90;;;10.90;1.00;;;;;;5058242;28;20169;-81
2021/05/29 00:37:54;;;;;;;1999.90;999.90;;;10.80;1.00;;;;;;5055904;28;20493;-81
2021/05/29 00:40:41;;;;;;;1999.90;999.90;;;10.80;1.00;;;;;;5056256;28;20183;-81
2021/05/29 00:43:21;;;;;;;1999.90;999.90;;;10.90;1.00;;;;;;5055303;28;20204;-81
2021/05/29 00:45:51;;;;;;;1999.90;999.90;;;10.80;1.00;;;;;;5054808;28;20178;-81
2021/05/29 00:48:33;;;;;;;1999.90;999.90;;;10.80;1.00;;;;;;5056704;28;20197;-81
2021/05/29 00:51:02;;;;;;;1999.90;999.90;;;10.80;1.00;;;;;;5055109;28;20161;-81
2021/05/29 00:53:47;;;;;;;1999.90;999.90;;;10.70;99.90;;;;;;5056149;28;20161;-81
2021/05/29 00:56:26;;;;;;;;;;;;;;;;;;;;;
2021/05/29 00:58:55;;;;;;;1999.90;999.90;;;10.60;1.00;;;;;;5056346;28;20188;-81
2021/05/29 01:02:02;;;;;;;1999.90;999.90;;;10.50;1.00;;;;;;5054880;28;20247;-81
2021/05/29 01:04:29;;;;;;;1999.90;999.90;;;10.40;1.00;;;;;;5053571;28;20540;-81
2021/05/29 01:07:01;;;;;;;1999.90;999.90;;;10.40;1.00;;;;;;5054922;28;20196;-81
2021/05/29 01:09:27;;;;;;;1999.90;999.90;;;10.40;1.00;;;;;;5055652;28;20202;-81
2021/05/29 01:11:59;;;;;;;1999.90;999.90;;;10.40;1.00;;;;;;5054228;28;20260;-81
2021/05/29 01:14:58;;;;;;;1999.90;999.90;;;10.30;1.00;;;;;;5055279;28;20469;-81
2021/05/29 01:17:35;;;;;;;1999.90;999.90;;;10.30;1.00;;;;;;5060593;28;20161;-81
2021/05/29 01:20:20;;;;;;;1999.90;999.90;;;10.30;1.00;;;;;;5059175;28;20176;-81
2021/05/29 01:23:08;;;;;;;1999.90;999.90;;;10.30;1.00;;;;;;5058560;28;20510;-81
2021/05/29 01:25:50;;;;;;;1999.90;999.90;;;10.20;1.00;;;;;;5060091;28;20173;-81
2021/05/29 01:28:30;;;;;;;;;;;;;;;;;;;;;
2021/05/29 01:31:12;;;;;;;1999.90;999.90;;;10.10;1.00;;;;;;5059637;28;20212;-81
2021/05/29 01:34:00;;;;;;;;;;;;;;;;;;;;;
2021/05/29 01:39:45;;;;;;;1999.90;999.90;;;10.00;1.00;;;;;;5058767;28;20594;-81
2021/05/29 01:42:36;;;;;;;1999.90;999.90;;;10.00;99.90;;;;;;5057661;28;20169;-81
2021/05/29 01:45:21;;;;;;;1999.90;999.90;;;10.00;1.00;;;;;;5059511;28;20248;-81
2021/05/29 01:47:49;;;;;;;1999.90;999.90;;;9.90;1.00;;;;;;5058135;28;20204;-81
2021/05/29 01:50:45;;;;;;;1999.90;999.90;;;9.80;38.50;;;;;;5058765;28;20195;-81
2021/05/29 01:53:33;;;;;;;1999.90;999.90;;;9.70;99.90;;;;;;5058854;28;20559;-81
2021/05/29 01:56:13;;;;;;;1999.90;999.90;;;9.70;99.90;;;;;;5058013;28;20172;-81
2021/05/29 01:58:56;;;;;;;;;;;;;;;;;;;;;
2021/05/29 02:01:27;;;;;;;1999.90;999.90;;;9.60;99.90;;;;;;5059120;28;20267;-81
2021/05/29 02:04:04;;;;;;;1999.90;999.90;;;9.60;99.90;;;;;;5058013;28;20223;-80
2021/05/29 02:06:33;;;;;;;1999.90;999.90;;;9.50;99.90;;;;;;5059090;28;20170;-81
2021/05/29 02:09:13;;;;;;;1999.90;999.90;;;9.50;99.90;;;;;;5057388;28;20184;-81
2021/05/29 02:11:45;;;;;;;1999.90;999.90;;;9.50;99.90;;;;;;5057552;28;20168;-81
2021/05/29 02:14:23;;;;;;;1999.90;999.90;;;9.50;4.90;;;;;;5057279;28;20171;-81
2021/05/29 02:16:52;;;;;;;1999.90;999.90;;;9.60;1.00;;;;;;5058015;28;20557;-81
2021/05/29 02:19:18;;;;;;;1999.90;999.90;;;9.60;99.90;;;;;;5056456;28;20197;-81
2021/05/29 02:22:04;;;;;;;1999.90;999.90;;;9.50;91.00;;;;;;5057167;28;20169;-81
2021/05/29 02:24:32;;;;;;;1999.90;999.90;;;9.50;99.90;;;;;;5057735;28;20545;-81
2021/05/29 02:27:10;;;;;;;1999.90;999.90;;;9.60;1.00;;;;;;5056424;28;20552;-81
2021/05/29 02:29:50;;;;;;;1999.90;999.90;;;9.50;1.00;;;;;;5058336;28;20637;-81
2021/05/29 02:32:21;;;;;;;1999.90;999.90;;;9.50;99.90;;;;;;5057766;28;20247;-81
2021/05/29 02:35:10;;;;;;;1999.90;999.90;;;9.40;1.00;;;;;;5057693;28;20238;-81
2021/05/29 02:38:28;;;;;;;1999.90;999.90;;;9.30;1.00;;;;;;5057534;28;20256;-81
2021/05/29 02:40:55;;;;;;;1999.90;999.90;;;9.40;16.10;;;;;;5007670;28;20602;-80
2021/05/29 02:43:29;;;;;;;1999.90;999.90;;;9.40;1.00;;;;;;5057315;28;20171;-81
2021/05/29 02:46:20;;;;;;;1999.90;999.90;;;9.30;99.90;;;;;;5057689;28;20259;-81
2021/05/29 02:49:03;;;;;;;1999.90;999.90;;;9.30;17.50;;;;;;5057108;28;20187;-80
2021/05/29 02:51:31;;;;;;;1999.90;999.90;;;9.20;6.50;;;;;;5058376;28;20177;-81
2021/05/29 02:54:03;;;;;;;1999.90;999.90;;;9.20;8.20;;;;;;5057178;28;20260;-81
2021/05/29 02:56:36;;;;;;;1999.90;999.90;;;9.10;26.40;;;;;;5058335;28;20144;-81
2021/05/29 02:59:05;;;;;;;1999.90;999.90;;;9.00;37.30;;;;;;5056871;28;20188;-81
2021/05/29 03:01:38;;;;;;;1999.90;999.90;;;9.10;20.20;;;;;;5056759;28;20188;-80
2021/05/29 03:04:19;;;;;;;1999.90;999.90;;;9.30;99.90;;;;;;5056331;28;20199;-81
2021/05/29 03:06:56;;;;;;;1999.90;999.90;;;9.40;99.90;;;;;;5056776;28;20192;-81
2021/05/29 03:09:42;;;;;;;1999.90;999.90;;;9.50;99.90;;;;;;5056465;28;20214;-81
2021/05/29 03:12:18;;;;;;;1999.90;999.90;;;9.40;99.90;;;;;;5047071;28;20191;-81
2021/05/29 03:15:10;;;;;;;1999.90;999.90;;;9.30;99.90;;;;;;5056769;28;20639;-80
2021/05/29 03:17:42;;;;;;;1999.90;999.90;;;9.20;99.90;;;;;;5057914;28;20172;-81
2021/05/29 03:20:28;;;;;;;1999.90;999.90;;;9.20;99.90;;;;;;5057736;28;20664;-81
2021/05/29 03:23:05;;;;;;;1999.90;999.90;;;9.10;99.90;;;;;;5057639;28;20172;-81
2021/05/29 03:25:46;;;;;;;1999.90;999.90;;;9.00;1.00;;;;;;5056841;28;20361;-81
2021/05/29 03:28:18;;;;;;;1999.90;999.90;;;9.00;99.90;;;;;;5056414;28;20211;-81
2021/05/29 03:31:03;;;;;;;;;;;;;;;;;;;;;
2021/05/29 03:33:29;;;;;;;1999.90;999.90;;;8.90;99.90;;;;;;5057671;28;20247;-80
2021/05/29 03:36:07;;;;;;;1999.90;999.90;;;8.80;1.00;;;;;;5056592;28;20200;-81
2021/05/29 03:38:33;;;;;;;1999.90;999.90;;;8.90;1.00;;;;;;5056364;28;20521;-80
2021/05/29 03:41:02;;;;;;;1999.90;999.90;;;8.80;1.00;;;;;;5056486;28;20175;-81
2021/05/29 03:43:27;;;;;;;1999.90;999.90;;;8.90;1.00;;;;;;5056024;28;20172;-80
2021/05/29 03:46:01;;;;;;;1999.90;999.90;;;8.90;1.00;;;;;;5057571;28;20168;-81
2021/05/29 03:48:38;;;;;;;1999.90;999.90;;;8.80;1.00;;;;;;5056403;28;20687;-81
2021/05/29 03:51:13;;;;;;;1999.90;999.90;;;8.80;1.00;;;;;;5056826;28;20168;-81
2021/05/29 03:53:48;;;;;;;1999.90;999.90;;;8.80;35.70;;;;;;5057885;28;20148;-80
2021/05/29 03:56:14;;;;;;;1999.90;999.90;;;8.70;18.40;;;;;;5056165;28;20168;-81
2021/05/29 03:59:04;;;;;;;1999.90;999.90;;;8.70;45.20;;;;;;5056920;28;20180;-81
2021/05/29 04:01:47;;;;;;;1999.90;999.90;;;8.70;27.30;;;;;;5049340;28;20944;-80
2021/05/29 04:04:34;;;;;;;1999.90;999.90;;;8.70;41.50;;;;;;5057169;28;20156;-80
2021/05/29 04:07:08;;;;;;;1999.90;999.90;;;8.70;80.10;;;;;;5057607;28;20182;-81
2021/05/29 04:09:52;;;;;;;1999.90;999.90;;;8.70;50.30;;;;;;5057066;28;20192;-81
2021/05/29 04:12:59;;;;;;;1999.90;999.90;;;8.70;99.90;;;;;;5056126;28;20187;-81
2021/05/29 04:15:32;;;;;;;1999.90;999.90;;;8.80;99.90;;;;;;5055884;28;20176;-80
2021/05/29 04:18:21;;;;;;;1999.90;999.90;;;8.80;99.90;;;;;;5033553;28;20199;-80
2021/05/29 04:20:57;;;;;;;1999.90;999.90;;;8.80;99.90;;;;;;5018376;28;20215;-81
2021/05/29 04:23:35;;;;;;;1999.90;999.90;;;8.80;99.90;;;;;;5057279;28;20194;-81
2021/05/29 04:26:31;;;;;;;1999.90;999.90;;;8.80;99.90;;;;;;5055663;28;20195;-81
2021/05/29 04:29:09;;;;;;;1999.90;999.90;;;8.90;99.90;;;;;;5055957;28;20203;-81
2021/05/29 04:31:38;;;;;;;1999.90;999.90;;;8.90;99.90;;;;;;5055807;28;20187;-81
2021/05/29 04:34:27;;;;;;;1999.90;999.90;;;9.00;99.90;;;;;;5056902;28;20165;-81
2021/05/29 04:37:11;;;;;;;1999.90;999.90;;;9.20;99.90;;;;;;5055386;28;20177;-81
2021/05/29 04:39:53;;;;;;;1999.90;999.90;;;9.40;99.90;;;;;;5056718;28;20192;-81
2021/05/29 04:42:49;;;;;;;1999.90;999.90;;;9.70;1.00;;;;;;5057540;28;20157;-81
2021/05/29 04:45:18;;;;;;;1999.90;999.90;;;10.10;1.00;;;;;;5020837;28;20180;-81
2021/05/29 04:47:59;;;;;;;1999.90;999.90;;;10.40;99.90;;;;;;5056590;28;20223;-81
2021/05/29 04:53:35;;;;;;;1999.90;999.90;;;11.00;1.00;;;;;;5060959;28;20580;-81
2021/05/29 04:56:11;;;;;;;1999.90;999.90;;;11.30;1.00;;;;;;5060480;28;20165;-81
2021/05/29 04:59:17;;;;;;;1999.90;999.90;;;11.60;99.90;;;;;;5060656;28;20482;-81
2021/05/29 05:05:56;;;;;;;1999.90;999.90;;;12.10;1.00;;;;;;4988582;28;20205;-81
2021/05/29 05:08:41;;;;;;;1999.90;999.90;;;12.20;1.00;;;;;;4975228;28;20214;-81
2021/05/29 05:11:41;;;;;;;1999.90;999.90;;;12.30;1.00;;;;;;4982369;28;20175;-81
2021/05/29 05:15:18;;;;;;;1999.90;999.90;;;12.30;52.00;;;;;;4959472;28;20178;-81
2021/05/29 05:18:22;;;;;;;1999.90;999.90;;;12.40;1.00;;;;;;4993148;28;20565;-81
2021/05/29 05:20:43;;;;;;;1999.90;999.90;;;12.50;99.90;;;;;;4991423;28;20178;-81
2021/05/29 05:23:49;;;;;;;;;;;;;;;;;;;;;
2021/05/29 05:30:02;;;;;;;1999.90;999.90;;;12.40;1.00;;;;;;5060430;28;20253;-81
2021/05/29 05:32:39;;;;;;;1999.90;999.90;;;12.40;1.00;;;;;;4959075;28;20176;-81
2021/05/29 05:36:07;;;;;;;;;;;;;;;;;;;;;
2021/05/29 05:39:13;;;;;;;1999.90;999.90;;;12.20;1.00;;;;;;5016993;28;20276;-81
2021/05/29 05:48:31;;;;;;;1999.90;999.90;;;12.10;99.90;;;;;;5017861;28;20216;-81
2021/05/29 05:51:52;;;;;;;1999.90;999.90;;;12.10;99.90;;;;;;5000756;28;20200;-81
2021/05/29 05:55:02;;;;;;;;;;;;;;;;;;;;;
2021/05/29 06:00:54;;;;;;;1999.90;999.90;;;12.10;1.00;;;;;;5051472;22;20189;-83
2021/05/29 06:03:21;;;;;;;1999.90;999.90;;;12.10;99.90;;;;;;5049964;28;20172;-82
2021/05/29 06:05:47;;;;;;;1999.90;999.90;;;12.10;80.40;;;;;;5067300;28;20163;-82
2021/05/29 06:08:13;;;;;;;1999.90;999.90;;;12.20;99.90;;;;;;5049519;28;20232;-84
2021/05/29 06:10:39;;;;;;;1999.90;999.90;;;12.20;1.00;;;;;;5066324;28;20164;-84
2021/05/29 06:13:07;;;;;;;1999.90;999.90;;;12.30;1.00;;;;;;5048673;28;20184;-82
2021/05/29 06:20:52;;;;;;;1999.90;999.90;;;12.40;1.00;;;;;;5066875;28;20155;-82
2021/05/29 06:23:18;;;;;;;1999.90;999.90;;;12.50;1.00;;;;;;5066716;28;20168;-82
2021/05/29 06:25:44;;;;;;;1999.90;999.90;;;12.50;1.00;;;;;;5067025;28;20219;-82
2021/05/29 06:28:10;;;;;;;1999.90;999.90;;;12.60;1.00;;;;;;5067213;28;20486;-82
2021/05/29 06:30:36;;;;;;;1999.90;999.90;;;12.60;45.20;;;;;;5049269;28;20165;-82
2021/05/29 06:33:03;;;;;;;1999.90;999.90;;;12.60;19.80;;;;;;5068187;28;20399;-82
2021/05/29 06:35:29;;;;;;;1999.90;999.90;;;12.70;99.90;;;;;;5048656;28;20169;-82
2021/05/29 06:37:55;;;;;;;1999.90;999.90;;;12.80;1.00;;;;;;5067631;28;20188;-82
2021/05/29 06:40:21;;;;;;;1999.90;999.90;;;12.80;99.90;;;;;;5067561;28;20666;-82
2021/05/29 06:42:47;;;;;;;1999.90;999.90;;;12.90;99.90;;;;;;5049479;28;20187;-82
2021/05/29 06:45:12;;;;;;;1999.90;999.90;;;12.90;99.90;;;;;;5067406;28;20226;-82
2021/05/29 06:47:38;;;;;;;1999.90;999.90;;;12.90;99.90;;;;;;5048885;28;20599;-82
2021/05/29 06:50:09;;;;;;;1999.90;999.90;;;13.00;99.90;;;;;;5048674;28;20411;-82
2021/05/29 06:52:41;;;;;;;1999.90;999.90;;;13.10;99.90;;;;;;5066538;28;20655;-82
2021/05/29 07:00:39;;;;;;;1999.90;999.90;;;13.20;99.90;;;;;;5066189;28;20187;-82
2021/05/29 07:03:05;;;;;;;1999.90;999.90;;;13.30;99.90;;;;;;5065266;28;20426;-82
2021/05/29 07:05:31;;;;;;;1999.90;999.90;;;13.30;1.00;;;;;;5047975;28;20176;-82
2021/05/29 07:07:59;;;;;;;1999.90;999.90;;;13.40;1.00;;;;;;5065834;28;20223;-82
2021/05/29 07:10:25;;;;;;;1999.90;999.90;;;13.40;1.00;;;;;;5065479;28;20243;-82
2021/05/29 07:12:50;;;;;;;1999.90;999.90;;;13.50;1.00;;;;;;5064909;28;20411;-82
2021/05/29 07:15:16;;;;;;;1999.90;999.90;;;13.40;1.60;;;;;;5064344;28;20164;-82
2021/05/29 07:17:47;;;;;;;1999.90;999.90;;;13.50;6.00;;;;;;5065477;28;20517;-82
2021/05/29 07:20:14;;;;;;;1999.90;999.90;;;13.60;3.60;;;;;;5047369;28;20179;-82
2021/05/29 07:22:39;;;;;;;1999.90;999.90;;;13.60;1.00;;;;;;5064819;28;20932;-82
2021/05/29 07:25:06;;;;;;;1999.90;999.90;;;13.70;1.00;;;;;;5064701;28;20247;-82
2021/05/29 07:27:32;;;;;;;1999.90;999.90;;;13.80;1.00;;;;;;5046607;28;20193;-82
2021/05/29 07:29:58;;;;;;;1999.90;999.90;;;13.80;1.00;;;;;;5064343;28;20475;-82
2021/05/29 07:32:24;;;;;;;1999.90;999.90;;;13.90;1.00;;;;;;5063413;28;20160;-82
2021/05/29 07:34:51;;;;;;;1999.90;999.90;;;13.90;1.00;;;;;;5062752;28;20431;-82
2021/05/29 07:37:16;;;;;;;1999.90;999.90;;;14.00;1.00;;;;;;5062350;28;20399;-82
2021/05/29 07:39:42;;;;;;;1999.90;999.90;;;14.10;1.00;;;;;;5054562;28;20437;-83
2021/05/29 07:42:08;;;;;;;1999.90;999.90;;;14.10;1.00;;;;;;5073853;28;20172;-83
2021/05/29 07:44:33;;;;;;;1999.90;999.90;;;14.20;1.00;;;;;;5074007;28;20148;-83
2021/05/29 07:46:59;;;;;;;1999.90;999.90;;;14.20;5.50;;;;;;5073905;28;20196;-83
2021/05/29 07:49:25;;;;;;;1999.90;999.90;;;14.20;15.60;;;;;;5068416;28;20184;-81
2021/05/29 07:51:50;;;;;;;1999.90;999.90;;;14.30;38.30;;;;;;5045506;28;20267;-81
2021/05/29 07:54:16;;;;;;;1999.90;999.90;;;14.30;25.80;;;;;;5062891;28;20155;-81
2021/05/29 07:56:42;;;;;;;1999.90;999.90;;;14.30;31.10;;;;;;5043556;28;20168;-81
2021/05/29 07:59:15;;;;;;;1999.90;999.90;;;14.40;11.70;;;;;;5061633;28;20685;-81
2021/05/29 08:01:40;;;;;;;1999.90;999.90;;;14.40;7.30;;;;;;5044005;28;20451;-81
2021/05/29 08:04:06;;;;;;;1999.90;999.90;;;14.50;36.90;;;;;;5043321;28;20434;-81
2021/05/29 08:06:35;;;;;;;1999.90;999.90;;;14.50;42.00;;;;;;5059351;28;20604;-81
2021/05/29 08:09:01;;;;;;;1999.90;999.90;;;14.50;20.80;;;;;;5064528;28;20188;-82
2021/05/29 08:11:27;;;;;;;1999.90;999.90;;;14.50;37.90;;;;;;5071247;28;20399;-81
2021/05/29 08:13:55;;;;;;;1999.90;999.90;;;14.70;52.70;;;;;;5040812;28;20410;-81
2021/05/29 08:16:22;;;;;;;1999.90;999.90;;;14.70;25.60;;;;;;5058461;28;20409;-81
2021/05/29 08:18:49;;;;;;;1999.90;999.90;;;14.80;23.20;;;;;;5058128;28;20427;-81
2021/05/29 08:21:15;;;;;;;1999.90;999.90;;;14.90;40.40;;;;;;5057866;28;20464;-81
2021/05/29 08:23:41;;;;;;;1999.90;999.90;;;14.90;53.00;;;;;;5057491;28;20404;-81
2021/05/29 08:26:07;;;;;;;1999.90;999.90;;;15.00;18.30;;;;;;5059707;28;20176;-81
2021/05/29 08:28:34;;;;;;;1999.90;999.90;;;15.00;45.70;;;;;;5062523;28;20523;-81
2021/05/29 08:31:00;;;;;;;1999.90;999.90;;;15.10;31.10;;;;;;5064070;28;20479;-81
2021/05/29 08:33:26;;;;;;;1999.90;999.90;;;15.20;64.10;;;;;;5044300;28;20750;-81
2021/05/29 08:35:52;;;;;;;1999.90;999.90;;;15.20;79.10;;;;;;5062659;28;20445;-81
2021/05/29 08:38:18;;;;;;;1999.90;999.90;;;15.30;67.70;;;;;;5060500;28;20223;-80
2021/05/29 08:40:44;;;;;;;1999.90;999.90;;;15.30;73.10;;;;;;5042467;28;20782;-80
2021/05/29 08:43:10;;;;;;;1999.90;999.90;;;15.40;61.10;;;;;;5061401;28;20435;-81
2021/05/29 08:45:36;;;;;;;1999.90;999.90;;;15.50;51.90;;;;;;5063934;28;20410;-81
2021/05/29 08:48:03;;;;;;;1999.90;999.90;;;15.60;38.50;;;;;;5063317;28;20471;-81
2021/05/29 08:50:29;;;;;;;1999.90;999.90;;;15.60;41.60;;;;;;5061545;28;20461;-81
2021/05/29 08:52:55;;;;;;;1999.90;999.90;;;15.80;41.60;;;;;;5063890;28;20431;-81
2021/05/29 08:55:21;;;;;;;1999.90;999.90;;;15.90;17.20;;;;;;5064668;28;20175;-83
2021/05/29 08:57:50;;;;;;;1999.90;999.90;;;15.90;10.90;;;;;;5065095;28;20427;-81
2021/05/29 09:00:24;;;;;;;1999.90;999.90;;;15.90;1.00;;;;;;5064570;28;20500;-81
2021/05/29 09:03:08;;;;;;;1999.90;999.90;;;16.00;1.00;;;;;;5063837;28;20454;-81
2021/05/29 09:05:55;;;;;;;1999.90;999.90;;;16.10;9.40;;;;;;5046625;28;20411;-81
2021/05/29 09:08:26;;;;;;;1999.90;999.90;;;16.30;12.80;;;;;;5045421;28;20812;-81
2021/05/29 09:10:54;;;;;;;1999.90;999.90;;;16.50;1.00;;;;;;5063037;28;20418;-81
2021/05/29 09:13:21;;;;;;;1999.90;999.90;;;16.50;1.00;;;;;;5065651;28;20404;-81
2021/05/29 09:15:52;;;;;;;1999.90;999.90;;;16.60;13.30;;;;;;5067141;28;20426;-82
2021/05/29 09:18:33;;;;;;;1999.90;999.90;;;16.70;1.00;;;;;;5067980;28;20427;-82
2021/05/29 09:21:33;;;;;;;1999.90;999.90;;;16.90;21.30;;;;;;5072733;28;20429;-83
2021/05/29 09:24:12;;;;;;;1999.90;999.90;;;16.90;1.00;;;;;;5044843;28;20420;-83
2021/05/29 09:26:52;;;;;;;1999.90;999.90;;;17.00;1.00;;;;;;5073625;28;20427;-82
2021/05/29 09:29:29;;;;;;;1999.90;999.90;;;17.00;1.00;;;;;;5076076;28;20425;-81
2021/05/29 09:31:57;;;;;;;1999.90;999.90;;;17.10;1.00;;;;;;5058322;28;20420;-82
2021/05/29 09:34:42;;;;;;;1999.90;999.90;;;17.10;1.00;;;;;;5074763;28;20466;-81
2021/05/29 09:37:16;;;;;;;1999.90;999.90;;;17.20;1.00;;;;;;5071182;28;20401;-82
2021/05/29 09:39:47;;;;;;;1999.90;999.90;;;17.30;1.00;;;;;;5071921;28;20423;-82
2021/05/29 09:42:14;;;;;;;1999.90;999.90;;;17.50;81.20;;;;;;5072299;28;20790;-82
2021/05/29 09:44:41;;;;;;;1999.90;999.90;;;17.60;1.00;;;;;;5068704;28;20409;-82
2021/05/29 09:47:11;;;;;;;1999.90;999.90;;;17.80;1.00;;;;;;5051181;28;20444;-81
2021/05/29 09:49:56;;;;;;;1999.90;999.90;;;18.00;1.00;;;;;;5067150;28;20495;-81
2021/05/29 09:52:39;;;;;;;1999.90;999.90;;;18.20;99.90;;;;;;5071515;28;20383;-82
2021/05/29 09:55:08;;;;;;;1999.90;999.90;;;18.40;1.00;;;;;;5073225;28;20387;-81
2021/05/29 09:57:58;;;;;;;1999.90;999.90;;;18.50;1.00;;;;;;5073058;28;20398;-81
2021/05/29 10:00:39;;;;;;;1999.90;999.90;;;18.70;1.00;;;;;;5071864;28;20387;-81
2021/05/29 10:03:06;;;;;;;1999.90;999.90;;;19.00;1.00;;;;;;5052714;28;20587;-81
2021/05/29 10:05:33;;;;;;;1999.90;999.90;;;19.10;1.00;;;;;;5069071;28;20490;-81
2021/05/29 10:07:59;;;;;;;1999.90;999.90;;;18.90;1.00;;;;;;5072099;28;20439;-81
2021/05/29 10:10:26;;;;;;;1999.90;999.90;;;18.80;1.00;;;;;;5054678;28;20414;-81
2021/05/29 10:12:52;;;;;;;1999.90;999.90;;;18.90;39.10;;;;;;5072634;28;20386;-81
2021/05/29 10:15:19;;;;;;;1999.90;999.90;;;19.10;39.50;;;;;;5072311;28;20465;-81
2021/05/29 10:17:46;;;;;;;1999.90;999.90;;;19.40;39.40;;;;;;5071716;28;20441;-81
2021/05/29 10:20:12;;;;;;;1999.90;999.90;;;19.80;32.80;;;;;;5054273;28;20407;-81
2021/05/29 10:22:38;;;;;;;1999.90;999.90;;;20.00;36.30;;;;;;5073051;28;20403;-81
2021/05/29 10:25:11;;;;;;;1999.90;999.90;;;20.00;23.20;;;;;;5072358;28;20403;-81
2021/05/29 10:27:43;;;;;;;1999.90;999.90;;;20.20;17.90;;;;;;5069304;28;20445;-82
2021/05/29 10:30:10;;;;;;;1999.90;999.90;;;20.20;17.50;;;;;;5052632;28;20387;-81
2021/05/29 10:32:36;;;;;;;1999.90;999.90;;;20.00;18.10;;;;;;5069597;28;20960;-82
2021/05/29 10:35:12;;;;;;;1999.90;999.90;;;20.00;18.10;;;;;;5069120;28;20395;-82
2021/05/29 10:37:52;;;;;;;1999.90;999.90;;;19.90;14.80;;;;;;5051722;28;20171;-82
2021/05/29 10:40:26;;;;;;;1999.90;999.90;;;20.20;17.20;;;;;;5066891;28;20383;-81
2021/05/29 10:43:07;;;;;;;1999.90;999.90;;;20.60;16.60;;;;;;5066261;28;20408;-81
2021/05/29 10:45:35;;;;;;;1999.90;999.90;;;20.70;12.30;;;;;;5067908;28;20468;-82
2021/05/29 10:48:06;;;;;;;1999.90;999.90;;;20.90;10.50;;;;;;5069916;28;20462;-82
2021/05/29 10:50:44;;;;;;;1999.90;999.90;;;21.00;8.70;;;;;;5072468;28;20403;-83
2021/05/29 10:53:30;;;;;;;1999.90;999.90;;;21.00;9.00;;;;;;5073810;28;20405;-83
2021/05/29 10:56:15;;;;;;;1999.90;999.90;;;21.00;7.90;;;;;;5072955;28;20399;-82
2021/05/29 10:59:00;;;;;;;1999.90;999.90;;;21.30;8.40;;;;;;5069106;28;20806;-82
2021/05/29 11:01:40;;;;;;;1999.90;999.90;;;21.10;7.30;;;;;;5067804;28;20412;-82
2021/05/29 11:04:14;;;;;;;1999.90;999.90;;;21.00;6.40;;;;;;5068525;28;20383;-82
2021/05/29 11:06:42;;;;;;;1999.90;999.90;;;20.50;8.40;;;;;;5049060;28;20408;-82
2021/05/29 11:09:12;;;;;;;1999.90;999.90;;;20.40;10.10;;;;;;5068152;28;20491;-82
2021/05/29 11:14:14;;;;;;;1999.90;999.90;;;20.40;7.70;;;;;;5067823;28;20848;-82
2021/05/29 11:16:46;;;;;;;1999.90;999.90;;;20.20;8.00;;;;;;5068031;28;20804;-82
2021/05/29 11:19:33;;;;;;;1999.90;999.90;;;20.40;7.50;;;;;;5065241;28;20412;-82
2021/05/29 11:22:16;;;;;;;1999.90;999.90;;;20.40;7.30;;;;;;5066726;28;20395;-82
2021/05/29 11:24:54;;;;;;;1999.90;999.90;;;20.80;7.40;;;;;;5066413;28;20439;-82
2021/05/29 11:27:21;;;;;;;1999.90;999.90;;;21.10;5.90;;;;;;5065548;28;20807;-81
2021/05/29 11:29:57;;;;;;;1999.90;999.90;;;21.20;3.20;;;;;;5067588;28;20439;-82
2021/05/29 11:35:33;;;;;;;1999.90;999.90;;;20.70;4.10;;;;;;5064985;28;20389;-82
2021/05/29 11:38:09;;;;;;;1999.90;999.90;;;20.90;5.70;;;;;;5058645;28;20792;-81
2021/05/29 11:40:51;;;;;;;1999.90;999.90;;;21.30;6.70;;;;;;5058727;28;20462;-81
2021/05/29 11:43:33;;;;;;;1999.90;999.90;;;21.30;1.00;;;;;;5058046;28;20383;-81
2021/05/29 11:46:00;;;;;;;1999.90;999.90;;;21.00;1.70;;;;;;5039810;28;20416;-82
2021/05/29 11:48:30;;;;;;;1999.90;999.90;;;20.70;3.80;;;;;;5058005;28;20446;-82
2021/05/29 11:51:11;;;;;;;1999.90;999.90;;;20.20;4.80;;;;;;5058479;28;20415;-82
2021/05/29 11:53:51;;;;;;;1999.90;999.90;;;19.90;4.10;;;;;;5058217;28;20749;-81
2021/05/29 11:56:29;;;;;;;1999.90;999.90;;;19.70;3.90;;;;;;5059356;28;20408;-82
2021/05/29 11:58:55;;;;;;;1999.90;999.90;;;19.80;8.40;;;;;;5058776;28;20427;-82
2021/05/29 12:01:34;;;;;;;1999.90;999.90;;;20.30;8.40;;;;;;5126580;23;20482;-80
2021/05/29 12:04:02;;;;;;;1999.90;999.90;;;20.90;3.80;;;;;;5055179;28;20417;-78
2021/05/29 12:06:44;;;;;;;1999.90;999.90;;;21.20;3.80;;;;;;5057615;28;20396;-81
2021/05/29 12:09:11;;;;;;;1999.90;999.90;;;21.60;1.00;;;;;;5057674;28;20431;-84
2021/05/29 12:11:42;;;;;;;1999.90;999.90;;;21.80;1.00;;;;;;5058515;28;20469;-84
2021/05/29 12:14:21;;;;;;;1999.90;999.90;;;22.00;1.00;;;;;;5041954;28;20417;-84
2021/05/29 12:17:06;;;;;;;1999.90;999.90;;;21.60;1.00;;;;;;5059674;28;20481;-84
2021/05/29 12:19:37;;;;;;;1999.90;999.90;;;21.30;1.00;;;;;;5058326;28;20417;-83
2021/05/29 12:22:09;;;;;;;1999.90;999.90;;;21.10;1.00;;;;;;5041068;28;20480;-83
2021/05/29 12:24:55;;;;;;;1999.90;999.90;;;20.80;1.00;;;;;;5041002;28;20419;-83
2021/05/29 12:27:47;;;;;;;1999.90;999.90;;;21.00;1.00;;;;;;5059013;28;20519;-83
2021/05/29 12:30:17;;;;;;;1999.90;999.90;;;21.40;1.00;;;;;;5041718;28;20409;-84
2021/05/29 12:32:58;;;;;;;1999.90;999.90;;;21.50;1.00;;;;;;5035861;28;20608;-83
2021/05/29 12:35:38;;;;;;;1999.90;999.90;;;21.10;1.00;;;;;;5040765;28;20437;-83
2021/05/29 12:38:12;;;;;;;1999.90;999.90;;;20.80;1.00;;;;;;5041138;28;20435;-84
2021/05/29 12:40:38;;;;;;;1999.90;999.90;;;20.60;1.00;;;;;;5040892;28;20476;-84
2021/05/29 12:43:18;;;;;;;1999.90;999.90;;;20.80;1.00;;;;;;5041061;28;20423;-84
2021/05/29 12:45:47;;;;;;;1999.90;999.90;;;21.10;1.00;;;;;;5059008;28;20386;-83
2021/05/29 12:48:13;;;;;;;1999.90;999.90;;;21.30;1.00;;;;;;5039960;28;20853;-84
2021/05/29 12:53:35;;;;;;;1999.90;999.90;;;21.60;1.00;;;;;;5058910;28;20385;-84
2021/05/29 12:56:11;;;;;;;1999.90;999.90;;;21.60;1.00;;;;;;5040231;28;20468;-84
2021/05/29 12:58:40;;;;;;;1999.90;999.90;;;21.80;1.00;;;;;;5058568;28;20460;-84
2021/05/29 13:10:06;;;;;;;1999.90;999.90;;;22.00;1.00;;;;;;5058408;28;20998;-84
2021/05/29 13:12:37;;;;;;;1999.90;999.90;;;21.80;1.00;;;;;;5061584;28;20731;-85
2021/05/29 13:15:19;;;;;;;1999.90;999.90;;;21.60;1.00;;;;;;5043500;28;20403;-84
2021/05/29 13:17:46;;;;;;;1999.90;999.90;;;21.70;1.00;;;;;;5061631;28;20912;-84
2021/05/29 13:24:04;;;;;;;1999.90;999.90;;;21.60;1.00;;;;;;5062191;28;20406;-84
2021/05/29 13:27:03;;;;;;;;;;;;;;;;;;;;;
2021/05/29 13:36:24;;;;;;;;;;;;;;;;;;;;;
2021/05/29 13:39:29;;;;;;;1999.90;999.90;;;21.40;1.00;;;;;;5074376;23;20557;-84
2021/05/29 13:42:07;;;;;;;1999.90;999.90;;;21.60;1.00;;;;;;5017181;28;20427;-82
2021/05/29 14:09:48;;;;;;;;;;;;;;;;;;;;;
2021/05/29 14:16:21;;;;;;;1999.90;999.90;;;23.70;1.00;;;;;;5033580;28;20424;-91
2021/05/29 14:18:57;;;;;;;1999.90;999.90;;;23.50;1.00;;;;;;5027378;23;20480;-91
2021/05/29 14:39:06;;;;;;;;;;;;;;;;;;;;;
2021/05/29 14:46:05;;;;;;;1999.90;999.90;;;24.20;1.00;;;;;;5014882;28;20516;-87
2021/05/29 14:51:45;;;;;;;1999.90;999.90;;;24.20;1.00;;;;;;5018425;28;20821;-80
2021/05/29 14:54:11;;;;;;;1999.90;999.90;;;24.00;1.00;;;;;;5017267;28;20406;-80
2021/05/29 14:56:38;;;;;;;1999.90;999.90;;;24.00;1.00;;;;;;5016971;28;20842;-79
2021/05/29 14:59:05;;;;;;;1999.90;999.90;;;24.00;1.00;;;;;;5015376;28;20524;-81
2021/05/29 15:01:32;;;;;;;1999.90;999.90;;;24.10;1.00;;;;;;5016891;28;20971;-80